createdAt,value
2024-05-09T00:00:37.899Z,28.47
2024-05-09T00:02:45.348Z,28.44
2024-05-09T00:04:51.143Z,27.48
2024-05-09T00:06:56.539Z,28.56
2024-05-09T00:09:02.018Z,27.49
2024-05-09T00:11:07.660Z,28.25
2024-05-09T00:13:13.885Z,27.26
2024-05-09T00:15:19.328Z,26.81
2024-05-09T00:17:25.276Z,27.15
2024-05-09T00:19:30.944Z,27.31
2024-05-09T00:21:36.464Z,26.69
2024-05-09T00:23:42.127Z,27.24
2024-05-09T00:25:47.917Z,27.69
2024-05-09T00:27:53.399Z,26.77
2024-05-09T00:29:58.944Z,28.1
2024-05-09T00:32:04.972Z,27.65
2024-05-09T00:34:10.633Z,28.53
2024-05-09T00:36:16.131Z,28.4
2024-05-09T00:38:21.741Z,28.88
2024-05-09T00:40:44.049Z,28.36
2024-05-09T00:42:49.493Z,28.29
2024-05-09T00:44:54.844Z,27.81
2024-05-09T00:47:00.321Z,27.6
2024-05-09T00:49:05.882Z,27.13
2024-05-09T00:51:11.726Z,26.31
2024-05-09T00:53:17.770Z,27.79
2024-05-09T00:55:23.262Z,27.32
2024-05-09T00:57:28.704Z,27.44
2024-05-09T00:59:34.481Z,26.69
2024-05-09T01:01:40.319Z,26.68
2024-05-09T01:03:51.167Z,27.85
2024-05-09T01:05:57.414Z,27.05
2024-05-09T01:08:03.414Z,25.52
2024-05-09T01:10:24.292Z,27.52
2024-05-09T01:12:37.728Z,26.58
2024-05-09T01:14:43.147Z,27.68
2024-05-09T01:16:48.586Z,27.24
2024-05-09T01:18:54.364Z,26.58
2024-05-09T01:20:59.883Z,26.69
2024-05-09T01:23:05.435Z,27.05
2024-05-09T01:25:10.858Z,26.8
2024-05-09T01:27:16.310Z,27.09
2024-05-09T01:29:21.860Z,27.89
2024-05-09T01:31:27.286Z,27.56
2024-05-09T01:33:33.746Z,27.81
2024-05-09T01:35:39.667Z,26.68
2024-05-09T01:37:45.277Z,27.45
2024-05-09T01:39:50.579Z,26.64
2024-05-09T01:41:55.853Z,26.79
2024-05-09T01:44:01.641Z,27.19
2024-05-09T01:46:07.116Z,26.7
2024-05-09T01:48:14.122Z,26.63
2024-05-09T01:50:41.398Z,26.83
2024-05-09T01:52:48.831Z,27.26
2024-05-09T01:54:54.265Z,26.31
2024-05-09T01:56:59.708Z,26.39
2024-05-09T01:59:05.251Z,26.95
2024-05-09T02:01:10.736Z,26.71
2024-05-09T02:03:20.204Z,26.27
2024-05-09T02:05:26.226Z,27.13
2024-05-09T02:07:31.722Z,26.2
2024-05-09T02:09:37.065Z,27.92
2024-05-09T02:11:42.843Z,26.43
2024-05-09T02:13:48.484Z,26.34
2024-05-09T02:15:54.005Z,26.41
2024-05-09T02:18:00.001Z,26.98
2024-05-09T02:20:10.683Z,26.26
2024-05-09T02:22:18.710Z,25.64
2024-05-09T02:24:24.160Z,26.6
2024-05-09T02:26:29.727Z,26.66
2024-05-09T02:28:35.249Z,27.42
2024-05-09T02:30:44.295Z,27.45
2024-05-09T02:32:50.292Z,27.74
2024-05-09T02:34:55.954Z,27.07
2024-05-09T02:37:01.401Z,26.93
2024-05-09T02:39:06.842Z,27.88
2024-05-09T02:41:12.514Z,27.28
2024-05-09T02:43:17.950Z,27.4
2024-05-09T02:45:23.371Z,27.07
2024-05-09T02:47:29.359Z,27.36
2024-05-09T02:49:35.250Z,27.68
2024-05-09T02:51:40.709Z,27.32
2024-05-09T02:53:46.183Z,27.37
2024-05-09T02:55:51.599Z,27.57
2024-05-09T02:57:57.037Z,26.96
2024-05-09T03:00:02.600Z,26.96
2024-05-09T03:02:09.085Z,26.78
2024-05-09T03:04:14.618Z,27.45
2024-05-09T03:06:19.987Z,27.13
2024-05-09T03:08:25.559Z,26.85
2024-05-09T03:10:39.504Z,26.62
2024-05-09T03:12:45.339Z,26.82
2024-05-09T03:14:50.812Z,26.67
2024-05-09T03:18:09.815Z,28.25
2024-05-09T03:20:35.743Z,29.1
2024-05-09T03:22:42.257Z,28.74
2024-05-09T03:24:47.703Z,29.02
2024-05-09T03:26:53.139Z,29.5
2024-05-09T03:28:58.604Z,29.05
2024-05-09T03:31:03.911Z,28.7
2024-05-09T03:33:10.179Z,29.16
2024-05-09T03:35:16.006Z,28.89
2024-05-09T03:37:21.358Z,29.25
2024-05-09T03:39:26.730Z,29.2
2024-05-09T03:41:32.538Z,29.27
2024-05-09T03:43:37.988Z,29.52
2024-05-09T03:45:43.428Z,29.71
2024-05-09T03:47:49.835Z,29.59
2024-05-09T03:49:55.315Z,29.75
2024-05-09T03:52:00.817Z,29.91
2024-05-09T03:54:06.311Z,29.85
2024-05-09T03:56:12.268Z,30.28
2024-05-09T03:58:17.701Z,30.93
2024-05-09T04:00:41.140Z,31.01
2024-05-09T04:02:47.128Z,30.62
2024-05-09T04:04:53.099Z,30.58
2024-05-09T04:06:58.608Z,30.5
2024-05-09T04:09:03.964Z,30.51
2024-05-09T04:11:09.534Z,30.73
2024-05-09T04:13:15.130Z,30.68
2024-05-09T04:15:20.473Z,30.86
2024-05-09T04:17:26.146Z,30.79
2024-05-09T04:19:32.146Z,30.98
2024-05-09T04:21:37.711Z,31.09
2024-05-09T04:23:43.487Z,31.13
2024-05-09T04:25:49.081Z,31.26
2024-05-09T04:27:54.461Z,31.29
2024-05-09T04:29:59.876Z,31.44
2024-05-09T04:32:05.535Z,31.56
2024-05-09T04:34:11.609Z,31.68
2024-05-09T04:36:17.135Z,31.74
2024-05-09T04:38:22.871Z,31.7
2024-05-09T04:40:39.113Z,31.73
2024-05-09T04:42:44.610Z,32.2
2024-05-09T04:44:50.045Z,32.13
2024-05-09T04:46:55.714Z,32.03
2024-05-09T04:49:01.368Z,32.52
2024-05-09T04:51:07.456Z,32.42
2024-05-09T04:53:14.301Z,32.06
2024-05-09T04:55:19.808Z,32.08
2024-05-09T04:57:25.173Z,32.12
2024-05-09T04:59:30.773Z,32.99
2024-05-09T05:01:36.219Z,32.59
2024-05-09T05:03:42.798Z,33.33
2024-05-09T05:05:49.068Z,32.91
2024-05-09T05:07:54.627Z,33.06
2024-05-09T05:09:59.941Z,33.96
2024-05-09T05:12:05.708Z,33.69
2024-05-09T05:14:11.253Z,33.73
2024-05-09T05:16:16.671Z,33.77
2024-05-09T05:18:22.949Z,34
2024-05-09T05:20:36.194Z,32.97
2024-05-09T05:22:41.696Z,32.62
2024-05-09T05:24:47.138Z,32.74
2024-05-09T05:26:52.687Z,32.79
2024-05-09T05:28:58.136Z,32.85
2024-05-09T05:31:03.555Z,32.71
2024-05-09T05:33:09.855Z,33.32
2024-05-09T05:35:15.382Z,33.04
2024-05-09T05:37:20.905Z,31.72
2024-05-09T05:39:26.417Z,31.13
2024-05-09T05:41:32.164Z,30.78
2024-05-09T05:43:37.586Z,30.98
2024-05-09T05:45:42.969Z,30.81
2024-05-09T05:47:49.207Z,30.45
2024-05-09T05:49:54.835Z,30.47
2024-05-09T05:52:00.427Z,30.18
2024-05-09T05:54:05.874Z,30.43
2024-05-09T05:56:11.320Z,30.5
2024-05-09T05:58:16.863Z,29.84
2024-05-09T06:00:41.166Z,30.03
2024-05-09T06:02:47.911Z,30.02
2024-05-09T06:04:53.967Z,30.93
2024-05-09T06:06:59.389Z,30.63
2024-05-09T06:09:04.731Z,30.36
2024-05-09T06:11:10.340Z,30.63
2024-05-09T06:13:17.122Z,30.93
2024-05-09T06:15:22.379Z,30.81
2024-05-09T06:17:28.359Z,30.81
2024-05-09T06:19:34.398Z,30.68
2024-05-09T06:21:39.736Z,30.53
2024-05-09T06:23:45.193Z,30.9
2024-05-09T06:25:50.593Z,30.52
2024-05-09T06:27:55.987Z,29.7
2024-05-09T06:30:01.508Z,28.57
2024-05-09T06:32:07.636Z,29.66
2024-05-09T06:34:13.678Z,30.25
2024-05-09T06:36:19.155Z,30.13
2024-05-09T06:38:24.881Z,30.28
2024-05-09T06:40:43.548Z,30.38
2024-05-09T06:42:49.716Z,32.22
2024-05-09T06:44:55.253Z,32.26
2024-05-09T06:47:02.698Z,32.6
2024-05-09T06:49:09.024Z,32.73
2024-05-09T06:51:15.060Z,32.7
2024-05-09T06:53:20.918Z,32.64
2024-05-09T06:55:26.549Z,32.46
2024-05-09T06:57:31.951Z,32.8
2024-05-09T06:59:37.562Z,32.9
2024-05-09T07:01:43.282Z,32.89
2024-05-09T07:03:48.919Z,32.93
2024-05-09T07:05:54.783Z,32.95
2024-05-09T07:08:00.283Z,33.08
2024-05-09T07:10:14.786Z,33.16
2024-05-09T07:12:23.659Z,33.25
2024-05-09T07:14:29.435Z,33.34
2024-05-09T07:16:35.090Z,33.37
2024-05-09T07:18:41.027Z,33.59
2024-05-09T07:20:47.268Z,33.68
2024-05-09T07:22:53.067Z,33.42
2024-05-09T07:24:58.693Z,33.7
2024-05-09T07:27:04.170Z,33.42
2024-05-09T07:29:09.622Z,33.7
2024-05-09T07:31:15.068Z,33.61
2024-05-09T07:33:24.401Z,33.95
2024-05-09T07:35:31.424Z,33.65
2024-05-09T07:37:36.976Z,34.04
2024-05-09T07:39:42.411Z,34.22
2024-05-09T07:41:47.953Z,34.06
2024-05-09T07:43:53.443Z,34.18
2024-05-09T07:47:37.322Z,34.25
2024-05-09T07:53:46.137Z,34.01
2024-05-09T07:55:56.267Z,34.09
2024-05-09T07:58:02.118Z,33.91
2024-05-09T08:00:14.535Z,34.01
2024-05-09T08:02:23.506Z,34
2024-05-09T08:04:29.674Z,33.97
2024-05-09T08:06:35.098Z,34.1
2024-05-09T08:08:40.557Z,34.4
2024-05-09T08:10:46.463Z,33.98
2024-05-09T08:12:52.170Z,34.16
2024-05-09T08:14:57.490Z,34.54
2024-05-09T08:17:02.971Z,34.17
2024-05-09T08:19:08.893Z,34.31
2024-05-09T08:21:14.429Z,34.61
2024-05-09T08:23:19.870Z,34.15
2024-05-09T08:25:25.348Z,34.41
2024-05-09T08:27:30.873Z,34.35
2024-05-09T08:29:36.395Z,34.25
2024-05-09T08:31:42.167Z,34.17
2024-05-09T08:33:48.748Z,34.17
2024-05-09T08:35:54.362Z,34.3
2024-05-09T08:38:00.334Z,34.41
2024-05-09T08:40:19.703Z,34.21
2024-05-09T08:42:29.843Z,34.21
2024-05-09T08:44:35.378Z,34.13
2024-05-09T08:46:40.780Z,34.14
2024-05-09T08:48:46.900Z,34.1
2024-05-09T08:50:52.897Z,34.1
2024-05-09T08:52:58.372Z,34.12
2024-05-09T08:55:03.947Z,34.12
2024-05-09T08:57:09.261Z,34.11
2024-05-09T08:59:14.896Z,34.14
2024-05-09T09:01:20.630Z,34.12
2024-05-09T09:03:26.417Z,34.1
2024-05-09T09:05:33.103Z,34.07
2024-05-09T09:07:38.705Z,34.03
2024-05-09T09:09:44.330Z,34.03
2024-05-09T09:11:49.903Z,34.02
2024-05-09T09:13:55.354Z,34.03
2024-05-09T09:16:02.065Z,34.02
2024-05-09T09:18:13.027Z,34.03
2024-05-09T09:20:37.443Z,33.96
2024-05-09T09:22:42.768Z,33.99
2024-05-09T09:24:48.262Z,33.95
2024-05-09T09:26:53.695Z,33.89
2024-05-09T09:29:01.687Z,33.89
2024-05-09T09:31:07.765Z,33.96
2024-05-09T09:33:14.207Z,33.98
2024-05-09T09:35:19.881Z,33.99
2024-05-09T09:37:25.301Z,33.99
2024-05-09T09:39:30.878Z,34.02
2024-05-09T09:41:36.473Z,34.04
2024-05-09T09:43:41.834Z,34.04
2024-05-09T09:45:47.290Z,34.03
2024-05-09T09:47:53.041Z,34.03
2024-05-09T09:49:58.553Z,34
2024-05-09T09:52:04.094Z,34.02
2024-05-09T09:54:09.506Z,34.03
2024-05-09T09:56:14.967Z,34.22
2024-05-09T09:58:21.204Z,34.23
2024-05-09T10:00:35.770Z,34.49
2024-05-09T10:02:41.654Z,34.38
2024-05-09T10:04:47.725Z,34.5
2024-05-09T10:06:53.616Z,34.42
2024-05-09T10:08:58.983Z,34.38
2024-05-09T10:11:04.780Z,34.37
2024-05-09T10:13:11.090Z,34.34
2024-05-09T10:15:16.810Z,34.38
2024-05-09T10:17:22.516Z,34.39
2024-05-09T10:19:28.321Z,34.41
2024-05-09T10:21:34.139Z,34.41
2024-05-09T10:23:39.578Z,34.4
2024-05-09T10:25:44.876Z,34.46
2024-05-09T10:27:50.318Z,34.43
2024-05-09T10:29:55.737Z,34.44
2024-05-09T10:32:01.188Z,34.48
2024-05-09T10:34:07.209Z,34.44
2024-05-09T10:36:12.802Z,34.45
2024-05-09T10:38:18.223Z,34.52
2024-05-09T10:40:33.429Z,34.51
2024-05-09T10:42:39.216Z,34.51
2024-05-09T10:44:44.681Z,34.47
2024-05-09T10:46:50.121Z,34.48
2024-05-09T10:48:56.008Z,34.47
2024-05-09T10:51:01.516Z,34.53
2024-05-09T10:53:06.879Z,34.5
2024-05-09T10:55:12.297Z,34.53
2024-05-09T10:57:17.728Z,34.48
2024-05-09T10:59:23.179Z,34.48
2024-05-09T11:01:28.833Z,34.51
2024-05-09T11:03:35.470Z,34.51
2024-05-09T11:05:41.644Z,34.49
2024-05-09T11:07:47.186Z,34.52
2024-05-09T11:09:52.676Z,34.5
2024-05-09T11:11:58.294Z,34.53
2024-05-09T11:14:03.726Z,34.5
2024-05-09T11:16:09.665Z,34.51
2024-05-09T11:18:15.461Z,34.54
2024-05-09T11:20:34.588Z,34.52
2024-05-09T11:22:40.529Z,34.51
2024-05-09T11:24:46.132Z,34.5
2024-05-09T11:26:51.522Z,34.52
2024-05-09T11:28:56.895Z,34.51
2024-05-09T11:31:02.668Z,34.6
2024-05-09T11:33:08.190Z,34.54
2024-05-09T11:35:13.698Z,34.59
2024-05-09T11:37:19.466Z,34.62
2024-05-09T11:39:24.963Z,34.63
2024-05-09T11:41:30.287Z,34.56
2024-05-09T11:43:36.015Z,34.68
2024-05-09T11:45:41.540Z,34.6
2024-05-09T11:47:47.202Z,34.7
2024-05-09T11:49:52.927Z,34.62
2024-05-09T11:51:58.452Z,34.61
2024-05-09T11:54:03.888Z,34.39
2024-05-09T11:56:09.381Z,34.24
2024-05-09T11:58:15.064Z,34.31
2024-05-09T12:00:38.039Z,34.28
2024-05-09T12:02:43.760Z,34.23
2024-05-09T12:04:49.611Z,34.22
2024-05-09T12:06:55.288Z,34.2
2024-05-09T12:09:00.708Z,34.14
2024-05-09T12:11:06.479Z,34.09
2024-05-09T12:13:12.008Z,34.09
2024-05-09T12:15:17.489Z,34.04
2024-05-09T12:17:23.395Z,33.98
2024-05-09T12:19:28.951Z,33.95
2024-05-09T12:21:34.545Z,34.07
2024-05-09T12:23:40.020Z,33.88
2024-05-09T12:25:45.451Z,33.87
2024-05-09T12:27:51.038Z,33.75
2024-05-09T12:29:56.434Z,33.93
2024-05-09T12:32:02.085Z,33.88
2024-05-09T12:34:07.784Z,34
2024-05-09T12:36:13.364Z,34
2024-05-09T12:38:18.818Z,34.08
2024-05-09T12:40:39.890Z,34.11
2024-05-09T12:42:45.378Z,34.14
2024-05-09T12:44:50.714Z,34.19
2024-05-09T12:46:56.140Z,34.29
2024-05-09T12:49:02.606Z,34.34
2024-05-09T12:51:08.151Z,34.38
2024-05-09T12:53:13.506Z,34.38
2024-05-09T12:55:19.374Z,34.4
2024-05-09T12:57:24.701Z,34.49
2024-05-09T12:59:30.129Z,34.54
2024-05-09T13:01:36.210Z,34.58
2024-05-09T13:03:42.369Z,34.65
2024-05-09T13:05:48.775Z,34.74
2024-05-09T13:07:54.242Z,34.55
2024-05-09T13:09:59.842Z,34.58
2024-05-09T13:12:05.431Z,35.15
2024-05-09T13:14:10.862Z,35.13
2024-05-09T13:16:16.331Z,35.16
2024-05-09T13:18:22.187Z,35.46
2024-05-09T13:20:37.622Z,36.01
2024-05-09T13:22:43.072Z,36.24
2024-05-09T13:24:48.545Z,36.3
2024-05-09T13:26:53.942Z,36.07
2024-05-09T13:28:59.350Z,36.13
2024-05-09T13:31:04.871Z,35.97
2024-05-09T13:33:11.758Z,35.9
2024-05-09T13:35:18.192Z,35.89
2024-05-09T13:37:23.613Z,36.05
2024-05-09T13:39:29.034Z,36
2024-05-09T13:41:34.522Z,36.3
2024-05-09T13:43:40.048Z,36.79
2024-05-09T13:45:45.776Z,36.34
2024-05-09T13:47:51.613Z,36.31
2024-05-09T13:49:57.179Z,36.92
2024-05-09T13:52:02.809Z,37.52
2024-05-09T13:54:08.174Z,37.33
2024-05-09T13:56:13.503Z,36.92
2024-05-09T13:58:19.530Z,37.38
2024-05-09T14:00:49.743Z,37.15
2024-05-09T14:02:55.482Z,36.86
2024-05-09T14:05:01.383Z,37.02
2024-05-09T14:07:06.953Z,36.73
2024-05-09T14:09:12.462Z,36.79
2024-05-09T14:11:18.567Z,37.55
2024-05-09T14:13:24.292Z,37.3
2024-05-09T14:15:29.806Z,37.14
2024-05-09T14:17:35.631Z,37.41
2024-05-09T14:19:40.998Z,38.14
2024-05-09T14:21:46.736Z,38.32
2024-05-09T14:23:52.188Z,38.23
2024-05-09T14:25:57.834Z,38.03
2024-05-09T14:28:03.582Z,38.59
2024-05-09T14:30:31.296Z,39.3
2024-05-09T14:32:42.341Z,39.4
2024-05-09T14:34:48.167Z,39.47
2024-05-09T14:36:53.941Z,32.8
2024-05-09T14:38:59.455Z,30.48
2024-05-09T14:41:05.014Z,31.8
2024-05-09T14:43:10.782Z,33.79
2024-05-09T14:45:16.387Z,36.46
2024-05-09T14:47:21.963Z,36.28
2024-05-09T14:49:27.571Z,35.54
2024-05-09T14:51:33.109Z,35.12
2024-05-09T14:53:38.562Z,33.62
2024-05-09T14:55:46.003Z,33.4
2024-05-09T14:57:51.512Z,33.3
2024-05-09T14:59:57.034Z,32.67
2024-05-09T15:02:02.808Z,32.62
2024-05-09T15:04:08.552Z,32.63
2024-05-09T15:06:14.195Z,31.96
2024-05-09T15:08:20.303Z,32.29
2024-05-09T15:10:38.407Z,31.71
2024-05-09T15:12:44.074Z,31.53
2024-05-09T15:14:49.554Z,31.28
2024-05-09T15:16:55.103Z,31.04
2024-05-09T15:19:01.059Z,30.83
2024-05-09T15:21:06.747Z,31
2024-05-09T15:23:12.137Z,31.1
2024-05-09T15:25:17.908Z,30.54
2024-05-09T15:27:23.430Z,30.83
2024-05-09T15:29:28.834Z,30.74
2024-05-09T15:31:34.464Z,30.56
2024-05-09T15:33:40.309Z,30.52
2024-05-09T15:35:45.802Z,30.56
2024-05-09T15:37:51.140Z,30.58
2024-05-09T15:39:56.812Z,30.44
2024-05-09T15:42:02.221Z,30.47
2024-05-09T15:44:07.667Z,30.04
2024-05-09T15:46:13.157Z,29.89
2024-05-09T15:48:18.996Z,29.97
2024-05-09T15:50:42.932Z,30.02
2024-05-09T15:52:48.783Z,30.2
2024-05-09T15:54:54.379Z,30.06
2024-05-09T15:56:59.981Z,29.9
2024-05-09T15:59:05.414Z,29.88
2024-05-09T16:01:11.226Z,29.79
2024-05-09T16:03:17.917Z,29.83
2024-05-09T16:05:23.990Z,29.56
2024-05-09T16:07:29.531Z,29.4
2024-05-09T16:09:35.029Z,29.18
2024-05-09T16:11:40.516Z,29.69
2024-05-09T16:13:45.954Z,29.48
2024-05-09T16:15:52.135Z,29.41
2024-05-09T16:18:00.621Z,29.2
2024-05-09T16:20:21.718Z,29.34
2024-05-09T16:22:34.550Z,29.14
2024-05-09T16:24:39.993Z,29.16
2024-05-09T16:26:45.534Z,28.94
2024-05-09T16:28:51.175Z,28.86
2024-05-09T16:30:56.828Z,28.74
2024-05-09T16:33:03.000Z,28.96
2024-05-09T16:35:09.037Z,28.67
2024-05-09T16:37:14.858Z,30.23
2024-05-09T16:39:20.217Z,30.32
2024-05-09T16:41:25.644Z,30.69
2024-05-09T16:43:31.251Z,31
2024-05-09T16:45:37.581Z,31.27
2024-05-09T16:47:43.517Z,31.59
2024-05-09T16:49:49.170Z,32.48
2024-05-09T16:51:54.607Z,32.46
2024-05-09T16:54:00.256Z,32.81
2024-05-09T16:56:05.697Z,32.82
2024-05-09T16:58:11.485Z,32.58
2024-05-09T17:00:42.828Z,33.15
2024-05-09T17:02:49.504Z,33.26
2024-05-09T17:04:55.037Z,32.98
2024-05-09T17:07:00.615Z,32.74
2024-05-09T17:09:19.902Z,33.22
2024-05-09T17:11:25.887Z,34.12
2024-05-09T17:13:31.583Z,34.14
2024-05-09T17:15:38.578Z,34.08
2024-05-09T17:17:44.300Z,33.76
2024-05-09T17:19:49.794Z,33.56
2024-05-09T17:21:55.373Z,33.8
2024-05-09T17:24:00.826Z,33.93
2024-05-09T17:26:06.338Z,33.85
2024-05-09T17:28:12.597Z,33.74
2024-05-09T17:30:37.549Z,33.85
2024-05-09T17:32:45.245Z,33.73
2024-05-09T17:34:50.800Z,33.81
2024-05-09T17:36:56.421Z,33.72
2024-05-09T17:39:01.886Z,33.79
2024-05-09T17:41:07.490Z,33.96
2024-05-09T17:43:13.801Z,30.46
2024-05-09T17:45:19.315Z,29.26
2024-05-09T17:47:24.917Z,31.07
2024-05-09T17:49:30.835Z,31.93
2024-05-09T17:51:36.583Z,32.47
2024-05-09T17:53:42.023Z,33.04
2024-05-09T17:55:47.575Z,33.33
2024-05-09T17:57:53.079Z,33.5
2024-05-09T17:59:58.541Z,33.45
2024-05-09T18:02:04.688Z,32.38
2024-05-09T18:04:10.918Z,33
2024-05-09T18:06:16.506Z,33.97
2024-05-09T18:08:21.937Z,33.6
2024-05-09T18:10:41.614Z,33.63
2024-05-09T18:12:47.490Z,33.75
2024-05-09T18:14:52.915Z,33.56
2024-05-09T18:16:58.454Z,33.6
2024-05-09T18:19:04.482Z,33.43
2024-05-09T18:21:09.989Z,33.53
2024-05-09T18:23:17.873Z,33.49
2024-05-09T18:25:24.236Z,33.59
2024-05-09T18:27:29.672Z,33.73
2024-05-09T18:29:35.091Z,33.91
2024-05-09T18:31:40.559Z,33.92
2024-05-09T18:33:46.766Z,34.03
2024-05-09T18:35:52.236Z,33.84
2024-05-09T18:37:57.666Z,34.24
2024-05-09T18:40:03.437Z,34.27
2024-05-09T18:42:09.671Z,34.19
2024-05-09T18:44:15.132Z,34.03
2024-05-09T18:46:20.518Z,34.41
2024-05-09T18:48:26.314Z,34.03
2024-05-09T18:50:42.692Z,33.73
2024-05-09T18:52:48.049Z,34.3
2024-05-09T18:54:53.490Z,33.95
2024-05-09T18:56:58.853Z,34.09
2024-05-09T18:59:04.279Z,33.35
2024-05-09T19:01:10.360Z,33.19
2024-05-09T19:03:18.016Z,33.38
2024-05-09T19:05:24.425Z,33.55
2024-05-09T19:07:30.016Z,33.87
2024-05-09T19:09:35.475Z,33.43
2024-05-09T19:11:41.146Z,33.72
2024-05-09T19:13:46.542Z,33.51
2024-05-09T19:15:52.076Z,33.56
2024-05-09T19:17:58.006Z,33.57
2024-05-09T19:20:05.983Z,34.17
2024-05-09T19:22:11.768Z,34.27
2024-05-09T19:24:17.184Z,33.84
2024-05-09T19:26:22.634Z,34
2024-05-09T19:28:28.460Z,33.63
2024-05-09T19:30:44.514Z,33.48
2024-05-09T19:32:50.500Z,33.44
2024-05-09T19:34:56.190Z,33.4
2024-05-09T19:37:01.870Z,33.39
2024-05-09T19:39:07.277Z,34.06
2024-05-09T19:41:12.760Z,33.35
2024-05-09T19:43:18.608Z,33.13
2024-05-09T19:45:24.332Z,33.23
2024-05-09T19:47:30.277Z,33.22
2024-05-09T19:49:36.157Z,33.7
2024-05-09T19:51:41.810Z,31.52
2024-05-09T19:53:47.242Z,29.9
2024-05-09T19:55:52.775Z,29.5
2024-05-09T19:58:00.519Z,28.83
2024-05-09T20:00:17.814Z,28.35
2024-05-09T20:02:28.048Z,28.5
2024-05-09T20:04:34.202Z,28.4
2024-05-09T20:06:39.720Z,28.22
2024-05-09T20:08:45.169Z,27.7
2024-05-09T20:10:51.106Z,27.89
2024-05-09T20:12:56.647Z,28.55
2024-05-09T20:15:02.116Z,28.01
2024-05-09T20:17:07.452Z,27.82
2024-05-09T20:19:13.315Z,27.6
2024-05-09T20:21:18.855Z,27.52
2024-05-09T20:23:24.194Z,27.45
2024-05-09T20:25:29.720Z,27.47
2024-05-09T20:27:35.152Z,27.37
2024-05-09T20:29:40.639Z,27.43
2024-05-09T20:31:46.049Z,27.35
2024-05-09T20:33:51.640Z,27.24
2024-05-09T20:35:57.638Z,27.18
2024-05-09T20:38:06.083Z,27.18
2024-05-09T20:40:32.283Z,27.18
2024-05-09T20:42:41.409Z,27.18
2024-05-09T20:44:46.859Z,27.2
2024-05-09T20:46:52.286Z,27.17
2024-05-09T20:48:58.232Z,27.18
2024-05-09T20:51:03.694Z,27.18
2024-05-09T20:53:09.476Z,27.15
2024-05-09T20:55:15.123Z,27.21
2024-05-09T20:57:20.607Z,27.13
2024-05-09T20:59:25.952Z,27.04
2024-05-09T21:01:31.533Z,27.1
2024-05-09T21:03:37.491Z,27.05
2024-05-09T21:05:44.297Z,27.09
2024-05-09T21:07:49.966Z,27.1
2024-05-09T21:09:55.335Z,27.05
2024-05-09T21:12:00.811Z,27.02
2024-05-09T21:14:06.196Z,26.98
2024-05-09T21:16:11.847Z,27
2024-05-09T21:18:17.491Z,27.15
2024-05-09T21:20:33.844Z,27.16
2024-05-09T21:22:39.321Z,27.19
2024-05-09T21:24:45.088Z,27.18
2024-05-09T21:26:50.521Z,27.17
2024-05-09T21:28:56.048Z,27.16
2024-05-09T21:31:01.443Z,27.17
2024-05-09T21:33:07.433Z,27.12
2024-05-09T21:35:13.086Z,27.12
2024-05-09T21:37:18.757Z,27.14
2024-05-09T21:39:24.224Z,27.13
2024-05-09T21:41:29.516Z,27.25
2024-05-09T21:43:34.957Z,27.18
2024-05-09T21:45:40.751Z,27.2
2024-05-09T21:47:46.697Z,27.2
2024-05-09T21:49:52.158Z,27.25
2024-05-09T21:51:57.687Z,27.28
2024-05-09T21:54:03.078Z,27.32
2024-05-09T21:56:08.465Z,27.33
2024-05-09T21:58:14.210Z,27.38
2024-05-09T22:00:39.875Z,27.39
2024-05-09T22:02:45.506Z,27.4
2024-05-09T22:04:51.475Z,27.46
2024-05-09T22:06:57.041Z,27.43
2024-05-09T22:09:02.502Z,27.47
2024-05-09T22:11:08.491Z,27.48
2024-05-09T22:13:14.178Z,27.49
2024-05-09T22:15:19.602Z,27.54
2024-05-09T22:17:25.448Z,27.54
2024-05-09T22:19:30.871Z,27.63
2024-05-09T22:21:36.779Z,27.65
2024-05-09T22:23:42.334Z,27.62
2024-05-09T22:25:47.735Z,27.72
2024-05-09T22:27:53.126Z,27.74
2024-05-09T22:29:58.635Z,27.75
2024-05-09T22:32:04.055Z,27.73
2024-05-09T22:34:10.137Z,27.77
2024-05-09T22:36:15.746Z,27.8
2024-05-09T22:38:21.112Z,27.9
2024-05-09T22:40:49.968Z,27.96
2024-05-09T22:42:55.833Z,27.99
2024-05-09T22:45:01.328Z,28.05
2024-05-09T22:47:06.801Z,28.06
2024-05-09T22:49:12.507Z,28.1
2024-05-09T22:51:17.993Z,28.06
2024-05-09T22:53:23.457Z,27.96
2024-05-09T22:55:29.061Z,28
2024-05-09T22:57:34.581Z,28.07
2024-05-09T22:59:40.065Z,28.12
2024-05-09T23:01:45.909Z,28.15
2024-05-09T23:03:51.842Z,28.17
2024-05-09T23:05:57.319Z,28.2
2024-05-09T23:08:02.897Z,28.25
2024-05-09T23:10:34.397Z,28.29
2024-05-09T23:12:42.636Z,28.31
2024-05-09T23:14:48.276Z,28.33
2024-05-09T23:16:53.736Z,28.34
2024-05-09T23:18:59.430Z,28.37
2024-05-09T23:21:05.023Z,28.38
2024-05-09T23:23:12.719Z,28.39
2024-05-09T23:25:18.542Z,28.45
2024-05-09T23:27:23.947Z,28.43
2024-05-09T23:29:29.369Z,28.45
2024-05-09T23:31:34.788Z,28.46
2024-05-09T23:33:41.058Z,28.48
2024-05-09T23:35:47.447Z,28.46
2024-05-09T23:37:52.918Z,28.46
2024-05-09T23:39:58.638Z,28.42
2024-05-09T23:42:04.037Z,28.41
2024-05-09T23:44:09.343Z,28.34
2024-05-09T23:46:15.129Z,28.37
2024-05-09T23:48:20.819Z,28.35
2024-05-09T23:50:40.519Z,28.37
2024-05-09T23:52:46.459Z,28.38
2024-05-09T23:54:51.929Z,28.39
2024-05-09T23:56:57.443Z,28.39
2024-05-09T23:59:02.902Z,28.38
